Terminal Aerodrome Forecast
Issued by NWS

Home | Current Version | Previous Version | Text Only | Print | Product List | Glossary On
Versions: 1 2 3 4 5 6 7 8 9 10 11 12 13 14 15 16 17 18 19 20 21 22 23 24 25 26 27
751
FTUS43 KDLH 232340
TAFHYR
TAF
KHYR 232340Z 2400/2424 17009KT P6SM -RA OVC025
     FM240300 15007KT 5SM -RA OVC015
     FM240500 VRB03KT 3SM -FZRA OVC007
     FM240900 03004KT 5SM -RA OVC003
     FM241400 03003KT P6SM VCSH OVC012
     FM241800 03008KT P6SM VCSH OVC020=

USA.gov is the U.S. government's official web portal to all federal, state and local government web resources and services.